Wetterdaten: Woche 18.05.20 - 24.05.20 (KW21)
Datum Zeit Temp. Aussen Temp. o. S. Temp +5cm Feuchte Auss Luftdruck Regen Sonnenschein Regendauer Solar Windben Empfang
18.05.2020 00:00 10,7 C 8,5 C 8,0 C 79 % 1023,5 hPa 0,0 l/m 0,00 h 0,00 h 0 W/m 0,0 km/h (0 Bft) 94,58 %
18.05.2020 01:00 9,7 C 7,8 C 7,4 C 80 % 1023,4 hPa 0,0 l/m 0,00 h 0,00 h 0 W/m 0,0 km/h (0 Bft) 98,72 %
18.05.2020 02:00 9,1 C 7,6 C 7,0 C 84 % 1023,5 hPa 0,0 l/m 0,00 h 0,00 h 0 W/m 0,0 km/h (0 Bft) 97,65 %
18.05.2020 03:00 8,5 C 6,8 C 6,5 C 85 % 1023,5 hPa 0,0 l/m 0,00 h 0,00 h 0 W/m 0,0 km/h (0 Bft) 96,70 %
18.05.2020 04:00 8,1 C 6,7 C 6,0 C 88 % 1023,4 hPa 0,0 l/m 0,00 h 0,00 h 0 W/m 0,0 km/h (0 Bft) 97,37 %
18.05.2020 05:00 7,8 C 7,1 C 6,3 C 90 % 1023,3 hPa 0,0 l/m 0,00 h 0,00 h 5 W/m 0,2 km/h (0 Bft) 95,80 %
18.05.2020 06:00 7,9 C 8,1 C 7,5 C 92 % 1023,5 hPa 0,0 l/m 0,00 h 0,00 h 24 W/m 1,1 km/h (1 Bft) 97,94 %
18.05.2020 07:00 9,1 C 10,4 C 9,5 C 91 % 1023,8 hPa 0,0 l/m 0,00 h 0,00 h 49 W/m 2,3 km/h (1 Bft) 97,02 %
18.05.2020 08:00 12,3 C 16,8 C 14,6 C 79 % 1023,9 hPa 0,0 l/m 0,20 h 0,00 h 131 W/m 7,8 km/h (2 Bft) 97,86 %
18.05.2020 09:00 16,3 C 20,8 C 24,9 C 64 % 1023,9 hPa 0,0 l/m 1,00 h 0,00 h 525 W/m 7,9 km/h (2 Bft) 97,79 %
18.05.2020 10:00 18,8 C 23,0 C 27,0 C 60 % 1024,0 hPa 0,0 l/m 1,00 h 0,00 h 628 W/m 9,8 km/h (2 Bft) 99,72 %
18.05.2020 11:00 20,6 C 24,9 C 22,9 C 58 % 1023,9 hPa 0,0 l/m 1,00 h 0,00 h 717 W/m 7,9 km/h (2 Bft) 96,37 %
18.05.2020 12:00 21,9 C 26,6 C 22,5 C 54 % 1023,5 hPa 0,0 l/m 1,00 h 0,00 h 863 W/m 13,6 km/h (3 Bft) 97,90 %
18.05.2020 13:00 23,6 C 28,3 C 27,9 C 51 % 1023,2 hPa 0,0 l/m 1,00 h 0,00 h 938 W/m 11,7 km/h (2 Bft) 97,43 %
18.05.2020 14:00 24,1 C 28,1 C 27,8 C 51 % 1023,0 hPa 0,0 l/m 1,00 h 0,00 h 910 W/m 15,4 km/h (3 Bft) 97,36 %
18.05.2020 15:00 25,4 C 29,6 C 24,0 C 50 % 1022,7 hPa 0,0 l/m 1,00 h 0,00 h 840 W/m 12,4 km/h (3 Bft) 98,29 %
18.05.2020 16:00 25,4 C 28,1 C 23,7 C 49 % 1022,2 hPa 0,0 l/m 1,00 h 0,00 h 693 W/m 12,4 km/h (3 Bft) 96,37 %
18.05.2020 17:00 25,9 C 28,2 C 23,8 C 48 % 1021,8 hPa 0,0 l/m 1,00 h 0,00 h 581 W/m 8,9 km/h (2 Bft) 98,85 %
18.05.2020 18:00 25,2 C 25,8 C 23,0 C 49 % 1021,7 hPa 0,0 l/m 0,87 h 0,00 h 380 W/m 7,8 km/h (2 Bft) 97,69 %
18.05.2020 19:00 24,2 C 22,7 C 21,2 C 48 % 1021,6 hPa 0,0 l/m 0,40 h 0,00 h 142 W/m 6,4 km/h (2 Bft) 95,74 %
18.05.2020 20:00 21,9 C 20,0 C 19,1 C 49 % 1021,7 hPa 0,0 l/m 0,00 h 0,00 h 34 W/m 4,9 km/h (1 Bft) 99,36 %
18.05.2020 21:00 19,6 C 17,1 C 16,6 C 45 % 1022,2 hPa 0,0 l/m 0,00 h 0,00 h 6 W/m 2,6 km/h (1 Bft) 97,15 %
18.05.2020 22:00 17,4 C 14,6 C 13,8 C 52 % 1022,8 hPa 0,0 l/m 0,00 h 0,00 h 0 W/m 0,6 km/h (0 Bft) 95,02 %
18.05.2020 23:00 15,4 C 13,0 C 12,3 C 56 % 1022,9 hPa 0,0 l/m 0,00 h 0,00 h 0 W/m 0,4 km/h (0 Bft) 99,36 %
19.05.2020 00:00 13,6 C 11,0 C 10,1 C 61 % 1022,9 hPa 0,0 l/m 0,00 h 0,00 h 0 W/m 0,0 km/h (0 Bft) 98,34 %
19.05.2020 01:00 11,9 C 9,5 C 8,8 C 67 % 1022,8 hPa 0,0 l/m 0,00 h 0,00 h 0 W/m 0,0 km/h (0 Bft) 97,21 %
19.05.2020 02:00 10,7 C 8,8 C 8,0 C 69 % 1022,9 hPa 0,0 l/m 0,00 h 0,00 h 0 W/m 0,0 km/h (0 Bft) 96,01 %
19.05.2020 03:00 9,9 C 8,8 C 7,8 C 74 % 1022,7 hPa 0,0 l/m 0,00 h 0,00 h 0 W/m 0,0 km/h (0 Bft) 97,08 %
19.05.2020 04:00 9,4 C 7,7 C 7,0 C 75 % 1022,4 hPa 0,0 l/m 0,00 h 0,00 h 0 W/m 0,0 km/h (0 Bft) 98,99 %
19.05.2020 05:00 8,9 C 7,3 C 6,7 C 77 % 1022,0 hPa 0,0 l/m 0,00 h 0,00 h 6 W/m 0,0 km/h (0 Bft) 96,82 %
19.05.2020 06:00 8,5 C 8,8 C 7,3 C 80 % 1022,2 hPa 0,0 l/m 0,00 h 0,00 h 25 W/m 0,0 km/h (0 Bft) 99,26 %
19.05.2020 07:00 10,6 C 12,3 C 11,4 C 73 % 1022,5 hPa 0,0 l/m 0,00 h 0,00 h 90 W/m 5,3 km/h (1 Bft) 95,96 %
19.05.2020 08:00 13,5 C 16,0 C 14,0 C 64 % 1022,6 hPa 0,0 l/m 0,00 h 0,00 h 158 W/m 7,8 km/h (2 Bft) 98,36 %
19.05.2020 09:00 15,3 C 18,4 C 19,2 C 62 % 1022,7 hPa 0,0 l/m 0,53 h 0,00 h 390 W/m 7,7 km/h (2 Bft) 98,79 %
19.05.2020 10:00 18,6 C 23,3 C 28,3 C 58 % 1022,6 hPa 0,0 l/m 1,00 h 0,00 h 693 W/m 9,5 km/h (2 Bft) 95,80 %
19.05.2020 11:00 20,8 C 25,9 C 23,2 C 58 % 1022,6 hPa 0,0 l/m 1,00 h 0,00 h 771 W/m 7,7 km/h (2 Bft) 97,51 %
19.05.2020 12:00 23,3 C 28,8 C 23,7 C 55 % 1022,5 hPa 0,0 l/m 1,00 h 0,00 h 902 W/m 6,4 km/h (2 Bft) 96,61 %
19.05.2020 13:00 24,9 C 29,6 C 27,7 C 54 % 1022,1 hPa 0,0 l/m 0,93 h 0,00 h 852 W/m 7,4 km/h (2 Bft) 97,44 %
19.05.2020 14:00 25,5 C 30,2 C 28,5 C 53 % 1021,7 hPa 0,0 l/m 0,90 h 0,00 h 794 W/m 7,7 km/h (2 Bft) 99,29 %
19.05.2020 15:00 26,4 C 30,2 C 25,1 C 51 % 1021,4 hPa 0,0 l/m 0,87 h 0,00 h 791 W/m 8,9 km/h (2 Bft) 96,16 %
19.05.2020 16:00 26,4 C 29,8 C 24,1 C 52 % 1021,0 hPa 0,0 l/m 0,87 h 0,00 h 679 W/m 8,6 km/h (2 Bft) 98,45 %
19.05.2020 17:00 25,8 C 26,6 C 23,6 C 54 % 1020,7 hPa 0,0 l/m 0,43 h 0,00 h 354 W/m 5,7 km/h (1 Bft) 97,44 %
19.05.2020 18:00 24,6 C 24,3 C 22,2 C 57 % 1020,6 hPa 0,0 l/m 0,43 h 0,00 h 222 W/m 8,1 km/h (2 Bft) 96,68 %
19.05.2020 19:00 23,1 C 21,6 C 19,3 C 60 % 1020,7 hPa 0,0 l/m 0,30 h 0,00 h 118 W/m 6,2 km/h (2 Bft) 99,29 %
19.05.2020 20:00 21,5 C 20,0 C 18,5 C 62 % 1021,1 hPa 0,0 l/m 0,00 h 0,00 h 31 W/m 5,1 km/h (1 Bft) 95,95 %
19.05.2020 21:00 20,5 C 19,1 C 18,0 C 65 % 1021,5 hPa 0,0 l/m 0,00 h 0,00 h 6 W/m 2,7 km/h (1 Bft) 97,42 %
19.05.2020 22:00 19,6 C 18,0 C 17,2 C 68 % 1022,0 hPa 0,0 l/m 0,00 h 0,00 h 0 W/m 5,5 km/h (1 Bft) 99,57 %
19.05.2020 23:00 18,5 C 16,4 C 15,8 C 72 % 1022,4 hPa 0,0 l/m 0,00 h 0,00 h 0 W/m 1,2 km/h (1 Bft) 95,31 %
20.05.2020 00:00 17,3 C 15,2 C 14,6 C 75 % 1022,3 hPa 0,0 l/m 0,00 h 0,00 h 0 W/m 0,0 km/h (0 Bft) 97,07 %
20.05.2020 01:00 16,1 C 14,2 C 13,9 C 79 % 1022,5 hPa 0,0 l/m 0,00 h 0,00 h 0 W/m 0,2 km/h (0 Bft) 99,14 %
20.05.2020 02:00 15,6 C 14,4 C 14,0 C 82 % 1022,5 hPa 0,0 l/m 0,00 h 0,00 h 0 W/m 0,3 km/h (0 Bft) 95,73 %
20.05.2020 03:00 15,4 C 14,2 C 13,8 C 84 % 1022,3 hPa 0,0 l/m 0,00 h 0,00 h 0 W/m 0,7 km/h (0 Bft) 97,08 %
20.05.2020 04:00 14,7 C 13,0 C 12,8 C 85 % 1022,3 hPa 0,0 l/m 0,00 h 0,00 h 0 W/m 1,8 km/h (1 Bft) 97,94 %
20.05.2020 05:00 13,7 C 11,8 C 11,7 C 87 % 1022,2 hPa 0,0 l/m 0,00 h 0,00 h 6 W/m 2,5 km/h (1 Bft) 97,01 %
20.05.2020 06:00 12,8 C 11,8 C 11,4 C 90 % 1022,5 hPa 0,0 l/m 0,00 h 0,00 h 21 W/m 0,4 km/h (0 Bft) 97,43 %
20.05.2020 07:00 13,0 C 14,0 C 13,2 C 92 % 1022,7 hPa 0,0 l/m 0,00 h 0,00 h 76 W/m 0,2 km/h (0 Bft) 96,46 %
20.05.2020 08:00 14,6 C 16,4 C 15,6 C 92 % 1022,9 hPa 0,0 l/m 0,00 h 0,00 h 142 W/m 1,4 km/h (1 Bft) 97,24 %
20.05.2020 09:00 17,3 C 20,5 C 22,1 C 85 % 1023,1 hPa 0,0 l/m 0,60 h 0,00 h 318 W/m 3,3 km/h (1 Bft) 99,58 %
20.05.2020 10:00 18,3 C 18,8 C 18,6 C 78 % 1023,3 hPa 0,0 l/m 0,00 h 0,00 h 170 W/m 2,2 km/h (1 Bft) 94,65 %
20.05.2020 11:00 18,6 C 20,1 C 19,2 C 77 % 1023,4 hPa 0,0 l/m 0,10 h 0,00 h 290 W/m 3,4 km/h (1 Bft) 98,25 %
20.05.2020 12:00 20,1 C 22,4 C 21,4 C 73 % 1023,3 hPa 0,0 l/m 0,30 h 0,00 h 381 W/m 3,3 km/h (1 Bft) 99,70 %
20.05.2020 13:00 20,7 C 22,5 C 21,5 C 71 % 1023,4 hPa 0,0 l/m 0,40 h 0,00 h 393 W/m 4,5 km/h (1 Bft) 96,09 %
20.05.2020 14:00 21,7 C 24,1 C 23,1 C 67 % 1023,1 hPa 0,0 l/m 0,43 h 0,00 h 449 W/m 3,6 km/h (1 Bft) 97,52 %
20.05.2020 15:00 21,6 C 22,4 C 21,3 C 67 % 1022,8 hPa 0,0 l/m 0,07 h 0,00 h 275 W/m 2,9 km/h (1 Bft) 98,37 %
20.05.2020 16:00 21,3 C 21,4 C 20,7 C 67 % 1022,6 hPa 0,0 l/m 0,00 h 0,00 h 220 W/m 3,6 km/h (1 Bft) 97,29 %
20.05.2020 17:00 21,1 C 21,1 C 20,2 C 66 % 1022,5 hPa 0,0 l/m 0,00 h 0,00 h 188 W/m 4,4 km/h (1 Bft) 98,01 %
20.05.2020 18:00 20,6 C 20,3 C 19,4 C 67 % 1022,4 hPa 0,0 l/m 0,00 h 0,00 h 131 W/m 2,2 km/h (1 Bft) 97,11 %
20.05.2020 19:00 20,3 C 19,4 C 18,2 C 67 % 1022,2 hPa 0,0 l/m 0,13 h 0,00 h 99 W/m 1,6 km/h (1 Bft) 97,93 %
20.05.2020 20:00 19,4 C 17,2 C 16,2 C 69 % 1022,1 hPa 0,0 l/m 0,00 h 0,00 h 31 W/m 0,4 km/h (0 Bft) 97,44 %
20.05.2020 21:00 17,8 C 15,0 C 14,1 C 73 % 1022,3 hPa 0,0 l/m 0,00 h 0,00 h 9 W/m 0,0 km/h (0 Bft) 97,44 %
20.05.2020 22:00 16,1 C 13,3 C 12,4 C 78 % 1022,6 hPa 0,0 l/m 0,00 h 0,00 h 0 W/m 0,0 km/h (0 Bft) 99,17 %
20.05.2020 23:00 14,5 C 12,1 C 11,4 C 82 % 1023,0 hPa 0,0 l/m 0,00 h 0,00 h 0 W/m 0,0 km/h (0 Bft) 96,36 %
21.05.2020 00:00 13,3 C 11,0 C 10,5 C 85 % 1023,0 hPa 0,0 l/m 0,00 h 0,00 h 0 W/m 0,0 km/h (0 Bft) 92,20 %
21.05.2020 01:00 12,4 C 10,4 C 10,0 C 86 % 1022,9 hPa 0,0 l/m 0,00 h 0,00 h 0 W/m 0,0 km/h (0 Bft) 98,12 %
21.05.2020 02:00 11,9 C 10,5 C 9,9 C 90 % 1022,7 hPa 0,0 l/m 0,00 h 0,00 h 0 W/m 0,0 km/h (0 Bft) 99,36 %
21.05.2020 03:00 11,5 C 9,6 C 9,2 C 91 % 1022,4 hPa 0,0 l/m 0,00 h 0,00 h 0 W/m 0,0 km/h (0 Bft) 96,09 %
21.05.2020 04:00 11,0 C 9,4 C 8,9 C 93 % 1022,0 hPa 0,0 l/m 0,00 h 0,00 h 0 W/m 0,1 km/h (0 Bft) 96,93 %
21.05.2020 05:00 10,6 C 9,3 C 8,8 C 94 % 1021,9 hPa 0,0 l/m 0,00 h 0,00 h 6 W/m 0,0 km/h (0 Bft) 97,97 %
21.05.2020 06:00 10,4 C 9,7 C 9,0 C 95 % 1022,1 hPa 0,0 l/m 0,00 h 0,00 h 16 W/m 0,0 km/h (0 Bft) 98,07 %
21.05.2020 07:00 10,9 C 11,5 C 10,1 C 97 % 1022,3 hPa 0,0 l/m 0,00 h 0,00 h 33 W/m 0,1 km/h (0 Bft) 96,88 %
21.05.2020 08:00 14,0 C 20,4 C 18,8 C 97 % 1022,3 hPa 0,0 l/m 0,17 h 0,00 h 112 W/m 7,9 km/h (2 Bft) 98,13 %
21.05.2020 09:00 19,6 C 24,9 C 33,6 C 73 % 1022,5 hPa 0,0 l/m 1,00 h 0,00 h 577 W/m 7,9 km/h (2 Bft) 98,69 %
21.05.2020 10:00 22,2 C 26,6 C 32,1 C 65 % 1022,2 hPa 0,0 l/m 0,97 h 0,00 h 673 W/m 9,0 km/h (2 Bft) 98,25 %
21.05.2020 11:00 24,0 C 28,9 C 25,8 C 60 % 1021,8 hPa 0,0 l/m 1,00 h 0,00 h 815 W/m 8,9 km/h (2 Bft) 95,52 %
21.05.2020 12:00 25,6 C 31,3 C 25,2 C 57 % 1021,7 hPa 0,0 l/m 1,00 h 0,00 h 913 W/m 6,3 km/h (2 Bft) 98,89 %
21.05.2020 13:00 27,0 C 32,1 C 31,0 C 53 % 1021,4 hPa 0,0 l/m 1,00 h 0,00 h 953 W/m 7,6 km/h (2 Bft) 98,51 %
21.05.2020 14:00 27,7 C 32,7 C 30,7 C 50 % 1020,9 hPa 0,0 l/m 1,00 h 0,00 h 916 W/m 8,0 km/h (2 Bft) 94,80 %
21.05.2020 15:00 28,3 C 31,7 C 26,0 C 48 % 1020,6 hPa 0,0 l/m 1,00 h 0,00 h 710 W/m 5,7 km/h (1 Bft) 99,08 %
21.05.2020 16:00 28,4 C 31,8 C 26,1 C 47 % 1020,1 hPa 0,0 l/m 1,00 h 0,00 h 698 W/m 6,3 km/h (2 Bft) 99,07 %
21.05.2020 17:00 29,5 C 32,2 C 25,7 C 46 % 1019,6 hPa 0,0 l/m 1,00 h 0,00 h 606 W/m 4,1 km/h (1 Bft) 96,69 %
21.05.2020 18:00 29,6 C 30,1 C 24,4 C 45 % 1019,5 hPa 0,0 l/m 1,00 h 0,00 h 424 W/m 2,1 km/h (1 Bft) 97,59 %
21.05.2020 19:00 28,1 C 25,5 C 20,6 C 48 % 1019,2 hPa 0,0 l/m 0,50 h 0,00 h 158 W/m 0,5 km/h (0 Bft) 96,73 %
21.05.2020 20:00 25,1 C 22,6 C 18,3 C 54 % 1019,3 hPa 0,0 l/m 0,00 h 0,00 h 25 W/m 0,0 km/h (0 Bft) 97,42 %
21.05.2020 21:00 22,6 C 19,6 C 16,7 C 62 % 1019,4 hPa 0,0 l/m 0,00 h 0,00 h 9 W/m 0,0 km/h (0 Bft) 99,44 %
21.05.2020 22:00 20,2 C 17,2 C 15,5 C 68 % 1019,6 hPa 0,0 l/m 0,00 h 0,00 h 0 W/m 0,0 km/h (0 Bft) 94,94 %
21.05.2020 23:00 18,5 C 16,1 C 14,8 C 74 % 1019,5 hPa 0,0 l/m 0,00 h 0,00 h 0 W/m 0,0 km/h (0 Bft) 98,01 %
22.05.2020 00:00 17,3 C 15,6 C 14,3 C 77 % 1019,2 hPa 0,0 l/m 0,00 h 0,00 h 0 W/m 0,0 km/h (0 Bft) 99,41 %
22.05.2020 01:00 16,5 C 14,7 C 13,8 C 79 % 1019,1 hPa 0,0 l/m 0,00 h 0,00 h 0 W/m 0,0 km/h (0 Bft) 96,37 %
22.05.2020 02:00 16,5 C 16,3 C 15,2 C 81 % 1018,7 hPa 0,0 l/m 0,00 h 0,00 h 0 W/m 5,5 km/h (1 Bft) 97,36 %
22.05.2020 03:00 17,1 C 15,7 C 14,7 C 79 % 1018,4 hPa 0,0 l/m 0,00 h 0,00 h 0 W/m 3,0 km/h (1 Bft) 97,30 %
22.05.2020 04:00 16,6 C 15,4 C 15,0 C 81 % 1018,2 hPa 0,0 l/m 0,00 h 0,00 h 0 W/m 9,2 km/h (2 Bft) 97,84 %
22.05.2020 05:00 16,2 C 15,0 C 14,5 C 83 % 1018,0 hPa 0,0 l/m 0,00 h 0,00 h 10 W/m 6,2 km/h (2 Bft) 98,85 %
22.05.2020 06:00 16,3 C 16,0 C 15,4 C 85 % 1017,9 hPa 0,0 l/m 0,00 h 0,00 h 43 W/m 9,0 km/h (2 Bft) 96,49 %
22.05.2020 07:00 17,2 C 17,1 C 16,4 C 84 % 1017,9 hPa 0,0 l/m 0,00 h 0,00 h 75 W/m 12,0 km/h (2 Bft) 97,89 %
22.05.2020 08:00 18,1 C 18,4 C 17,6 C 83 % 1017,9 hPa 0,0 l/m 0,00 h 0,00 h 138 W/m 11,1 km/h (2 Bft) 98,86 %
22.05.2020 09:00 19,0 C 19,5 C 18,6 C 82 % 1017,9 hPa 0,0 l/m 0,00 h 0,00 h 161 W/m 10,8 km/h (2 Bft) 95,44 %
22.05.2020 10:00 20,2 C 20,7 C 19,5 C 79 % 1017,6 hPa 0,0 l/m 0,00 h 0,00 h 154 W/m 13,0 km/h (3 Bft) 98,65 %
22.05.2020 11:00 21,4 C 22,6 C 21,1 C 78 % 1017,3 hPa 0,0 l/m 0,00 h 0,00 h 249 W/m 12,6 km/h (3 Bft) 99,00 %
22.05.2020 12:00 24,3 C 27,2 C 24,9 C 71 % 1017,0 hPa 0,0 l/m 0,60 h 0,00 h 462 W/m 16,0 km/h (3 Bft) 94,41 %
22.05.2020 13:00 26,5 C 28,1 C 26,4 C 63 % 1016,7 hPa 0,0 l/m 0,53 h 0,00 h 452 W/m 20,9 km/h (4 Bft) 99,22 %
22.05.2020 14:00 28,0 C 29,5 C 28,6 C 56 % 1016,3 hPa 0,0 l/m 0,70 h 0,00 h 537 W/m 25,5 km/h (4 Bft) 98,15 %
22.05.2020 15:00 27,6 C 27,4 C 26,9 C 58 % 1016,4 hPa 0,0 l/m 0,17 h 0,03 h 290 W/m 22,7 km/h (4 Bft) 96,08 %
22.05.2020 16:00 26,8 C 26,7 C 25,8 C 54 % 1016,7 hPa 0,0 l/m 0,07 h 0,07 h 242 W/m 15,9 km/h (3 Bft) 98,65 %
22.05.2020 17:00 24,2 C 22,5 C 21,8 C 67 % 1017,5 hPa 0,0 l/m 0,00 h 0,80 h 168 W/m 12,3 km/h (3 Bft) 97,65 %
22.05.2020 18:00 21,3 C 20,2 C 19,9 C 76 % 1018,4 hPa 0,0 l/m 0,00 h 0,37 h 112 W/m 15,3 km/h (3 Bft) 97,46 %
22.05.2020 19:00 19,0 C 17,7 C 17,7 C 81 % 1019,1 hPa 0,0 l/m 0,00 h 0,23 h 42 W/m 12,6 km/h (3 Bft) 96,25 %
22.05.2020 20:00 18,1 C 17,0 C 17,0 C 79 % 1019,4 hPa 0,0 l/m 0,00 h 0,00 h 23 W/m 13,1 km/h (3 Bft) 98,08 %
22.05.2020 21:00 17,7 C 16,4 C 16,4 C 83 % 1019,5 hPa 0,0 l/m 0,00 h 0,00 h 4 W/m 13,6 km/h (3 Bft) 97,94 %
22.05.2020 22:00 17,0 C 15,7 C 15,6 C 86 % 1019,7 hPa 0,0 l/m 0,00 h 0,00 h 0 W/m 15,6 km/h (3 Bft) 96,45 %
22.05.2020 23:00 16,7 C 15,6 C 15,6 C 87 % 1019,9 hPa 0,0 l/m 0,00 h 0,00 h 0 W/m 12,1 km/h (2 Bft) 98,08 %
23.05.2020 00:00 16,6 C 15,6 C 15,6 C 88 % 1019,9 hPa 0,0 l/m 0,00 h 0,00 h 0 W/m 11,3 km/h (2 Bft) 97,71 %
23.05.2020 01:00 16,3 C 15,6 C 15,4 C 81 % 1020,1 hPa 0,0 l/m 0,00 h 0,00 h 0 W/m 11,1 km/h (2 Bft) 97,78 %
23.05.2020 02:00 16,1 C 15,1 C 14,9 C 66 % 1020,4 hPa 0,0 l/m 0,00 h 0,00 h 0 W/m 6,9 km/h (2 Bft) 96,96 %
23.05.2020 03:00 15,6 C 14,3 C 14,2 C 65 % 1020,5 hPa 0,0 l/m 0,00 h 0,00 h 0 W/m 3,9 km/h (1 Bft) 97,57 %
23.05.2020 04:00 14,8 C 13,6 C 13,6 C 64 % 1020,6 hPa 0,0 l/m 0,00 h 0,00 h 0 W/m 4,5 km/h (1 Bft) 97,79 %
23.05.2020 05:00 14,3 C 13,3 C 13,2 C 61 % 1020,8 hPa 0,0 l/m 0,00 h 0,00 h 6 W/m 5,0 km/h (1 Bft) 96,97 %
23.05.2020 06:00 14,0 C 13,2 C 12,8 C 63 % 1021,1 hPa 0,0 l/m 0,00 h 0,00 h 24 W/m 5,1 km/h (1 Bft) 96,02 %
23.05.2020 07:00 13,9 C 13,4 C 13,1 C 64 % 1021,4 hPa 0,0 l/m 0,00 h 0,00 h 52 W/m 10,5 km/h (2 Bft) 97,54 %
23.05.2020 08:00 14,2 C 14,2 C 13,6 C 66 % 1022,0 hPa 0,0 l/m 0,00 h 0,00 h 120 W/m 11,7 km/h (2 Bft) 96,96 %
23.05.2020 09:00 14,9 C 15,0 C 14,4 C 67 % 1022,4 hPa 0,0 l/m 0,00 h 0,00 h 171 W/m 12,7 km/h (3 Bft) 96,10 %
23.05.2020 10:00 15,4 C 15,7 C 15,0 C 68 % 1022,4 hPa 0,0 l/m 0,00 h 0,00 h 213 W/m 13,9 km/h (3 Bft) 98,30 %
23.05.2020 11:00 15,6 C 15,9 C 15,1 C 65 % 1022,8 hPa 0,0 l/m 0,00 h 0,00 h 217 W/m 16,3 km/h (3 Bft) 99,01 %
23.05.2020 12:00 16,3 C 18,7 C 16,7 C 65 % 1023,0 hPa 0,0 l/m 0,33 h 0,00 h 469 W/m 15,3 km/h (3 Bft) 94,62 %
23.05.2020 13:00 18,0 C 20,0 C 18,6 C 60 % 1022,8 hPa 0,0 l/m 0,73 h 0,00 h 504 W/m 17,0 km/h (3 Bft) 99,23 %
23.05.2020 14:00 19,5 C 23,2 C 20,3 C 55 % 1022,8 hPa 0,0 l/m 0,80 h 0,00 h 801 W/m 16,9 km/h (3 Bft) 98,93 %
23.05.2020 15:00 21,0 C 24,0 C 20,4 C 48 % 1022,8 hPa 0,0 l/m 0,80 h 0,00 h 733 W/m 17,6 km/h (3 Bft) 96,65 %
23.05.2020 16:00 21,4 C 24,1 C 20,3 C 46 % 1022,8 hPa 0,0 l/m 0,90 h 0,00 h 729 W/m 12,8 km/h (3 Bft) 97,06 %
23.05.2020 17:00 21,2 C 22,6 C 19,9 C 45 % 1022,9 hPa 0,0 l/m 0,63 h 0,00 h 474 W/m 15,0 km/h (3 Bft) 98,07 %
23.05.2020 18:00 20,2 C 20,3 C 19,0 C 47 % 1023,2 hPa 0,0 l/m 0,53 h 0,00 h 270 W/m 15,8 km/h (3 Bft) 98,02 %
23.05.2020 19:00 19,0 C 18,3 C 17,7 C 47 % 1023,7 hPa 0,0 l/m 0,10 h 0,00 h 102 W/m 13,5 km/h (3 Bft) 96,30 %
23.05.2020 20:00 17,9 C 16,8 C 16,6 C 47 % 1024,4 hPa 0,0 l/m 0,00 h 0,00 h 34 W/m 14,3 km/h (3 Bft) 98,59 %
23.05.2020 21:00 16,8 C 15,3 C 15,3 C 51 % 1025,1 hPa 0,0 l/m 0,00 h 0,00 h 11 W/m 9,9 km/h (2 Bft) 98,09 %
23.05.2020 22:00 15,6 C 14,2 C 14,2 C 55 % 1025,7 hPa 0,0 l/m 0,00 h 0,00 h 0 W/m 6,5 km/h (2 Bft) 94,80 %
23.05.2020 23:00 14,5 C 12,8 C 12,9 C 60 % 1026,1 hPa 0,0 l/m 0,00 h 0,00 h 0 W/m 5,1 km/h (1 Bft) 99,22 %
24.05.2020 00:00 13,6 C 12,5 C 12,5 C 63 % 1026,3 hPa 0,0 l/m 0,00 h 0,00 h 0 W/m 7,0 km/h (2 Bft) 94,46 %
24.05.2020 01:00 12,9 C 11,5 C 11,6 C 66 % 1026,2 hPa 0,0 l/m 0,00 h 0,00 h 0 W/m 8,2 km/h (2 Bft) 94,45 %
24.05.2020 02:00 12,2 C 11,0 C 11,0 C 70 % 1026,3 hPa 0,0 l/m 0,00 h 0,00 h 0 W/m 10,6 km/h (2 Bft) 97,58 %
24.05.2020 03:00 11,6 C 10,4 C 10,5 C 74 % 1026,4 hPa 0,0 l/m 0,00 h 0,00 h 0 W/m 8,0 km/h (2 Bft) 96,19 %
24.05.2020 04:00 11,0 C 10,0 C 10,0 C 79 % 1026,6 hPa 0,0 l/m 0,00 h 0,00 h 0 W/m 10,6 km/h (2 Bft) 97,79 %
24.05.2020 05:00 10,8 C 9,7 C 9,8 C 82 % 1026,9 hPa 0,0 l/m 0,00 h 0,00 h 8 W/m 7,9 km/h (2 Bft) 97,32 %
24.05.2020 06:00 10,5 C 9,6 C 9,5 C 85 % 1027,2 hPa 0,0 l/m 0,00 h 0,00 h 20 W/m 8,4 km/h (2 Bft) 97,11 %
24.05.2020 07:00 11,0 C 11,1 C 10,5 C 87 % 1027,8 hPa 0,0 l/m 0,00 h 0,00 h 55 W/m 13,0 km/h (3 Bft) 97,66 %
24.05.2020 08:00 12,9 C 16,0 C 14,8 C 83 % 1028,0 hPa 0,0 l/m 0,10 h 0,00 h 115 W/m 11,3 km/h (2 Bft) 97,57 %
24.05.2020 09:00 15,1 C 17,7 C 18,7 C 74 % 1028,2 hPa 0,0 l/m 0,73 h 0,00 h 458 W/m 14,4 km/h (3 Bft) 95,03 %
24.05.2020 10:00 17,1 C 20,4 C 21,1 C 67 % 1028,2 hPa 0,0 l/m 0,90 h 0,00 h 628 W/m 16,3 km/h (3 Bft) 98,33 %
24.05.2020 11:00 17,3 C 18,7 C 17,7 C 64 % 1028,1 hPa 0,0 l/m 0,47 h 0,00 h 370 W/m 15,1 km/h (3 Bft) 99,57 %
24.05.2020 12:00 17,1 C 17,5 C 16,8 C 65 % 1028,2 hPa 0,0 l/m 0,00 h 0,00 h 253 W/m 15,4 km/h (3 Bft) 96,09 %
24.05.2020 13:00 16,5 C 16,4 C 15,9 C 69 % 1028,5 hPa 0,0 l/m 0,00 h 0,03 h 159 W/m 12,2 km/h (2 Bft) 97,86 %
24.05.2020 14:00 16,1 C 15,7 C 15,3 C 74 % 1029,1 hPa 0,0 l/m 0,00 h 0,17 h 176 W/m 17,6 km/h (3 Bft) 98,57 %
24.05.2020 15:00 15,6 C 16,0 C 15,3 C 79 % 1029,6 hPa 0,0 l/m 0,00 h 0,00 h 225 W/m 13,0 km/h (3 Bft) 96,51 %
24.05.2020 16:00 15,5 C 15,5 C 15,0 C 81 % 1029,8 hPa 0,0 l/m 0,00 h 0,07 h 176 W/m 11,1 km/h (2 Bft) 98,64 %
24.05.2020 17:00 15,9 C 16,0 C 15,5 C 80 % 1029,9 hPa 0,0 l/m 0,00 h 0,00 h 142 W/m 9,0 km/h (2 Bft) 96,51 %
24.05.2020 18:00 15,9 C 14,8 C 14,7 C 81 % 1030,2 hPa 0,0 l/m 0,00 h 0,20 h 65 W/m 11,1 km/h (2 Bft) 97,97 %
24.05.2020 19:00 14,9 C 13,8 C 13,7 C 86 % 1030,5 hPa 0,2 l/m 0,00 h 0,20 h 54 W/m 6,3 km/h (2 Bft) 98,22 %
24.05.2020 20:00 14,2 C 12,2 C 12,4 C 91 % 1030,9 hPa 0,6 l/m 0,00 h 0,30 h 25 W/m 3,1 km/h (1 Bft) 95,80 %
24.05.2020 21:00 13,4 C 11,7 C 12,1 C 94 % 1031,2 hPa 0,0 l/m 0,00 h 0,00 h 7 W/m 2,1 km/h (1 Bft) 99,23 %
24.05.2020 22:00 13,1 C 11,7 C 11,8 C 96 % 1031,6 hPa 0,0 l/m 0,00 h 0,00 h 0 W/m 1,3 km/h (1 Bft) 97,01 %
24.05.2020 23:00 13,0 C 11,7 C 11,7 C 96 % 1031,8 hPa 0,0 l/m 0,00 h 0,07 h 0 W/m 0,3 km/h (0 Bft) 95,52 %
Min-Datum _ 18.05.20 18.05.20 18.05.20 18.05.20 22.05.20 - - - - 18.05.20 21.05.20
_ Min-Zeit 05:08 04:34 04:46 21:12 14:08 - - - - 00:00 00:02
Minimum _ 7,7 C 6,1 C 5,6 C 42 % 1016,1 hPa - - - - 0,0 km/h (0 Bft) 8,33 %
Max-Datum _ 21.05.20 21.05.20 21.05.20 21.05.20 24.05.20 24.05.20 18.05.20 22.05.20 23.05.20 22.05.20 18.05.20
_ Max-Zeit 17:54 14:30 13:52 08:20 23:48 20:00 12:08 15:58 14:32 14:14 01:04
Maximum _ 29,8 C 35,0 C 40,6 C 99 % 1031,9 hPa 0,6 l/m 0,07 h 0,03 h 1127 W/m 41,8 km/h
SO (6 Bft)
100,00 %
Durchschnitt _ 17,7 C 17,9 C 16,9 C 70 % 1022,6 hPa #0,8 l/m #40:30 h #2:32 h 304 W/m 6,9 km/h (2 Bft) 97,42 %
© 2020 W. Hausmann